メインページ
METAR-TAF:

METAR-TAF

空港 :

Mitiga International Airport

トリポリ, リビア

緯度: 32-54N, 経度: 13-17E, 海抜: 11m

現時点の気象観測

当レポートは1時間3分前の21:55(UTC)に作成
の風 2kt
気温 22°C
湿度 78%
気圧 1015 hPa
視程: 8000m
高度3000ftの雲はほとんどない
高度16000ftの千切れ雲あり

METAR: HLLM 182155Z 35002KT 8000 FEW030 BKN160 22/18 Q1015

時間: 00:58 (22:58 UTC)

予報

当レポートは17時間58分前の05:00(UTC)に作成
予報は18日の 06時(UTC)から 19日の 06時(UTC)まで有効
北/北西の風 10kt
視程10km以上
高度3000ftの雲はほとんどない
高度8000ftの雲は散在している

TAF: HLLM 180500Z 1806/1906 33010KT 9999 FEW030 SCT080

4,000以上の空港の気象観測と天気予報(METAR報とTAF報)

利用可能な観測所は地図上に黄色い丸と赤い丸で示す。

丸の上にカーソルを重ねると観測所名を参照できる。

次にクリックすると気象観測と天気予報を参照できる。

マップの切り替え:黒色「×」印の緑ボタンをクリックして拡大、「-」印の緑ボタンをクリックして縮小、緑色の三角印をクリックして隣りの地図に切り替え


METAR-TAF: